Flight Track Log - Related Links

Times and Time Zones

All times are in EST time to prevent confusion due to time zone crossing. See the ACA7033 flight status page for this flight to view local times or setup timezone preferences in your user account.

Time Position Orientation Groundspeed Altitude Reporting Facility
EST Latitude Longitude Course Direction KTS MPH feet Rate Location/Type
Fri 04:30:27 PM 51.0833 -114.0333 174° South 130 150 4,100  Level Edmonton Center
Fri 04:31:27 PM 51.1333 -114.0500 348° North 200 230 5,700 2,100 Climbing Edmonton Center
Fri 04:32:27 PM 51.2000 -114.0667 351° North 250 288 8,300 2,800 Climbing Edmonton Center
Fri 04:33:27 PM 51.2000 -114.1667 270° West 270 311 11,300 2,850 Climbing Edmonton Center
Fri 04:34:27 PM 51.1000 -114.2000 192° South 340 391 14,000 2,500 Climbing Edmonton Center
Fri 04:35:27 PM 51.0000 -114.1833 174° South 380 437 16,300 2,400 Climbing Edmonton Center
Fri 04:36:00 PM 50.2882 -113.8957 174° South  Level Estimated
Fri 04:36:27 PM 50.8833 -114.1500 170° South 390 449 18,800  Level Edmonton Center
Fri 04:37:27 PM 50.7833 -114.1333 174° South 400 460 21,100 2,150 Climbing Edmonton Center
Fri 04:38:27 PM 50.6500 -114.1000 171° South 420 483 23,100 1,950 Climbing Edmonton Center
Fri 04:39:27 PM 50.5333 -114.0833 175° South 440 506 25,000 1,750 Climbing Edmonton Center
Fri 04:40:27 PM 50.4000 -114.0333 167° South 450 518 26,600 1,550 Climbing Edmonton Center
Fri 04:41:27 PM 50.2833 -114.0000 170° South 460 529 28,100 1,550 Climbing Edmonton Center
Fri 04:42:27 PM 50.1500 -113.9833 175° South 470 541 29,700 1,400 Climbing Edmonton Center
Fri 04:43:27 PM 50.0167 -113.9500 171° South 480 552 30,900 1,500 Climbing Edmonton Center
Fri 04:44:27 PM 49.9000 -113.9000 165° South 490 564 32,700 1,600 Climbing Edmonton Center
Fri 04:45:27 PM 49.7667 -113.8667 171° South 480 552 34,100 1,250 Climbing Edmonton Center
Fri 04:46:27 PM 49.6333 -113.8500 175° South 480 552 35,200 1,000 Climbing Edmonton Center
Fri 04:47:27 PM 49.4833 -113.7833 164° South 490 564 36,100 900 Climbing Edmonton Center
Fri 04:48:27 PM 49.3667 -113.7667 175° South 480 552 37,000 450 Climbing Edmonton Center
Fri 04:49:27 PM 49.2167 -113.7333 172° South 490 564 37,000  Level Edmonton Center
Fri 04:50:27 PM 49.0833 -113.6833 166° South 500 575 37,000  Level Edmonton Center
Fri 04:51:27 PM 48.9500 -113.6667 175° South 500 575 37,000  Level Edmonton Center
Fri 04:52:37 PM 48.8144 -113.6122 165° South 499 574 37,000  Level Salt Lake Center
Fri 04:53:39 PM 48.6764 -113.5800 171° South 499 574 37,000 -48 Level Salt Lake Center
Fri 04:54:41 PM 48.5392 -113.5483 171° South 499 574 36,900  Descending Salt Lake Center
Fri 04:55:42 PM 48.4003 -113.5167 171° South 501 577 37,000 49 Climbing Salt Lake Center
Fri 04:56:44 PM 48.2608 -113.4844 171° South 504 580 37,000  Level Salt Lake Center
Fri 04:57:46 PM 48.1203 -113.4531 172° South 507 583 37,000 -49 Level Salt Lake Center
Fri 04:58:47 PM 47.9814 -113.4211 171° South 504 580 36,900 -49 Descending Salt Lake Center
Fri 04:59:49 PM 47.8408 -113.3897 171° South 507 583 36,900  Level Salt Lake Center
Fri 05:00:51 PM 47.7014 -113.3586 171° South 506 582 36,900 48 Level Salt Lake Center
Fri 05:01:53 PM 47.5331 -113.3175 171° South 508 585 37,000  Climbing Salt Lake Center
Fri 05:02:54 PM 47.3914 -113.2867 172° South 513 590 36,900 -49 Descending Salt Lake Center
Fri 05:03:56 PM 47.2503 -113.2569 172° South 513 590 36,900 48 Level Salt Lake Center
Fri 05:04:58 PM 47.1064 -113.2242 171° South 523 602 37,000 48 Climbing Salt Lake Center
Fri 05:06:00 PM 46.9664 -113.1944 172° South 511 588 37,000  Level Salt Lake Center
Fri 05:07:01 PM 46.8228 -113.1636 172° South 519 597 37,000 -49 Level Salt Lake Center
Fri 05:08:03 PM 46.6661 -113.1292 171° South 518 596 36,900 -48 Descending Salt Lake Center
Fri 05:09:05 PM 46.5258 -113.0986 171° South 514 592 36,900 48 Level Salt Lake Center
Fri 05:10:07 PM 46.3678 -113.0650 172° South 520 598 37,000 98 Climbing Salt Lake Center
Fri 05:11:08 PM 46.2219 -113.0328 171° South 521 600 37,100 49 Climbing Salt Lake Center
Fri 05:12:10 PM 46.0611 -113.0006 172° South 530 610 37,100 -48 Level Salt Lake Center
Fri 05:13:12 PM 45.9150 -112.9681 171° South 525 604 37,000 -48 Descending Salt Lake Center
Fri 05:14:14 PM 45.7700 -112.9375 172° South 520 598 37,000  Level Salt Lake Center
Fri 05:15:16 PM 45.6244 -112.9064 171° South 518 596 37,000  Level Salt Lake Center
Fri 05:16:17 PM 45.4778 -112.8736 171° South 523 602 37,000 49 Level Salt Lake Center
Fri 05:17:19 PM 45.3289 -112.8428 172° South 523 602 37,100  Climbing Salt Lake Center
Fri 05:18:21 PM 45.1936 -112.8142 172° South 516 594 37,000 -48 Descending Salt Lake Center
Fri 05:19:23 PM 45.0325 -112.7800 171° South 523 602 37,000  Level Salt Lake Center
Fri 05:20:25 PM 44.8950 -112.7522 172° South 522 601 37,000  Level Salt Lake Center
Fri 05:21:26 PM 44.7353 -112.7189 172° South 521 600 37,000  Level Salt Lake Center
Fri 05:22:28 PM 44.6000 -112.6906 172° South 518 596 37,000  Level Salt Lake Center
Fri 05:23:30 PM 44.4428 -112.6589 172° South 514 592 37,000  Level Salt Lake Center
Fri 05:24:32 PM 44.3069 -112.6314 172° South 516 594 37,000  Level Salt Lake Center
Fri 05:25:34 PM 44.1483 -112.6008 172° South 517 595 37,000  Level Salt Lake Center
Fri 05:26:36 PM 44.0128 -112.5750 172° South 516 594 37,000  Level Salt Lake Center
Fri 05:27:38 PM 43.8742 -112.5492 172° South 522 601 37,000  Level Salt Lake Center
Fri 05:28:40 PM 43.7131 -112.5150 171° South 525 604 37,000  Level Salt Lake Center
Fri 05:29:42 PM 43.5744 -112.4897 172° South 526 605 37,000  Level Salt Lake Center
Fri 05:30:44 PM 43.4119 -112.4581 172° South 529 609 37,000  Level Salt Lake Center
Fri 05:31:46 PM 43.2731 -112.4294 171° South 527 606 37,000  Level Salt Lake Center
Fri 05:32:48 PM 43.1153 -112.3994 172° South 516 594 37,000  Level Salt Lake Center
Fri 05:33:50 PM 42.9789 -112.3736 172° South 516 594 37,000 -48 Level Salt Lake Center
Fri 05:34:52 PM 42.8217 -112.3431 172° South 511 588 36,900  Descending Salt Lake Center
Fri 05:35:54 PM 42.6883 -112.3186 172° South 508 585 37,000 48 Climbing Salt Lake Center
Fri 05:36:56 PM 42.5478 -112.2906 172° South 510 587 37,000  Level Salt Lake Center
Fri 05:37:58 PM 42.4078 -112.2647 172° South 510 587 37,000  Level Salt Lake Center
Fri 05:39:00 PM 42.2383 -112.2347 173° South 513 590 37,000  Level Salt Lake Center
Fri 05:40:02 PM 42.0989 -112.2078 172° South 510 587 37,000  Level Salt Lake Center
Fri 05:41:04 PM 41.9589 -112.1828 172° South 509 586 37,000  Level Salt Lake Center
Fri 05:42:06 PM 41.8175 -112.1567 172° South 513 590 37,000  Level Salt Lake Center
Fri 05:43:08 PM 41.6769 -112.1314 172° South 512 589 37,000 48 Level Salt Lake Center
Fri 05:44:10 PM 41.5381 -112.1069 172° South 506 582 37,100  Climbing Salt Lake Center
Fri 05:45:12 PM 41.3742 -112.0778 172° South 495 570 37,000 -48 Descending Salt Lake Center
Fri 05:46:14 PM 41.2369 -112.0528 172° South 499 574 37,000 -48 Level Salt Lake Center
Fri 05:47:16 PM 41.1042 -112.0289 172° South 492 566 36,900  Descending Salt Lake Center
Fri 05:48:18 PM 40.9711 -112.0064 173° South 497 572 37,000 48 Climbing Salt Lake Center
Fri 05:49:20 PM 40.8106 -111.9797 173° South 491 565 37,000  Level Salt Lake Center
Fri 05:50:22 PM 40.6733 -111.9703 177° South 500 575 37,000  Level Salt Lake Center
Fri 05:51:24 PM 40.5350 -111.9606 177° South 500 575 37,000 48 Level Salt Lake Center
Fri 05:52:26 PM 40.3953 -111.9511 177° South 504 580 37,100 48 Climbing Salt Lake Center
Fri 05:53:28 PM 40.2556 -111.9469 179° South 502 578 37,100 -48 Level Salt Lake Center
Fri 05:54:30 PM 40.0908 -111.9697 186° South 496 571 37,000 -97 Descending Salt Lake Center
Fri 05:55:32 PM 39.9531 -111.9889 186° South 498 573 36,900  Descending Salt Lake Center
Fri 05:56:34 PM 39.8169 -112.0086 186° South 494 568 37,000 48 Climbing Salt Lake Center
Fri 05:57:36 PM 39.6800 -112.0289 187° South 496 571 37,000  Level Salt Lake Center
Fri 05:58:38 PM 39.5428 -112.0475 186° South 496 571 37,000  Level Salt Lake Center
Fri 05:59:41 PM 39.4064 -112.0675 186° South 493 567 37,000  Level Salt Lake Center
Fri 06:00:43 PM 39.2450 -112.0883 186° South 486 559 37,000  Level Salt Lake Center
Fri 06:01:45 PM 39.1156 -112.1086 187° South 478 550 37,000  Level Salt Lake Center
Fri 06:02:47 PM 38.9819 -112.1264 186° South 482 555 37,000  Level Salt Lake Center
Fri 06:03:49 PM 38.8469 -112.1453 186° South 486 559 37,000  Level Salt Lake Center
Fri 06:04:51 PM 38.7122 -112.1647 186° South 488 562 37,000 48 Level Salt Lake Center
Fri 06:05:53 PM 38.5489 -112.1869 186° South 491 565 37,100  Climbing Salt Lake Center
Fri 06:06:55 PM 38.4156 -112.2069 187° South 483 556 37,000 -48 Descending Salt Lake Center
Fri 06:07:57 PM 38.2808 -112.2253 186° South 486 559 37,000 48 Level Salt Lake Center
Fri 06:08:59 PM 38.1464 -112.2433 186° South 486 559 37,100  Climbing Salt Lake Center
Fri 06:10:01 PM 38.0128 -112.2619 186° South 482 555 37,000 -48 Descending Salt Lake Center
Fri 06:11:03 PM 37.8786 -112.2794 186° South 482 555 37,000  Level Salt Lake Center
Fri 06:12:04 PM 37.7456 -112.2972 186° South 480 552 37,000  Level Salt Lake Center
Fri 06:13:06 PM 37.5844 -112.3086 183° South 479 551 37,000  Level Salt Lake Center
Fri 06:14:08 PM 37.4494 -112.3175 183° South 481 554 37,000  Level Salt Lake Center
Fri 06:15:10 PM 37.3147 -112.3258 183° South 481 554 37,000 -145 Level Salt Lake Center
Fri 06:16:12 PM 37.1808 -112.3328 182° South 480 552 36,700 -609 Descending Salt Lake Center
Fri 06:17:18 PM 37.0458 -112.3419 183° South 478 550 35,700 -938 Descending Los Angeles Center
Fri 06:18:20 PM 36.8861 -112.3522 183° South 479 551 34,700 -968 Descending Los Angeles Center
Fri 06:19:22 PM 36.7536 -112.3594 183° South 477 549 33,700 -816 Descending Los Angeles Center
Fri 06:20:25 PM 36.6186 -112.3686 183° South 484 557 33,000 -336 Descending Los Angeles Center
Fri 06:21:27 PM 36.4850 -112.3769 183° South 482 555 33,000  Level Los Angeles Center
Fri 06:22:29 PM 36.3508 -112.3853 183° South 482 555 33,000  Level Los Angeles Center
Fri 06:23:31 PM 36.2167 -112.3933 183° South 482 555 33,000 -532 Level Los Angeles Center
Fri 06:24:33 PM 36.0561 -112.4036 183° South 481 554 31,900 -919 Descending Los Angeles Center
Fri 06:25:35 PM 35.9283 -112.4103 182° South 486 559 31,100 -629 Descending Los Angeles Center
Fri 06:26:37 PM 35.7942 -112.4164 182° South 483 556 30,600 -823 Descending Los Angeles Center
Fri 06:27:39 PM 35.6614 -112.4228 182° South 479 551 29,400 -774 Descending Los Angeles Center
Fri 06:28:41 PM 35.5308 -112.4297 182° South 472 543 29,000 -192 Descending Los Angeles Center
Fri 06:29:44 PM 35.3992 -112.4353 182° South 472 543 29,000 -48 Level Los Angeles Center
Fri 06:30:46 PM 35.2431 -112.4036 171° South 475 547 28,900 -339 Descending Los Angeles Center
Fri 06:31:48 PM 35.1181 -112.3789 171° South 461 531 28,300 -1,452 Descending Los Angeles Center
Fri 06:32:50 PM 34.9967 -112.3533 170° South 447 514 25,900 -1,772 Descending Los Angeles Center
Fri 06:34:17 PM 34.8361 -112.3169 169° South 422 486 23,900 -1,893 Descending Albuquerque Center
Fri 06:35:19 PM 34.7053 -112.2883 170° South 415 478 21,200 -2,177 Descending Albuquerque Center
Fri 06:36:21 PM 34.5961 -112.2636 169° South 406 467 19,400 -1,355 Descending Albuquerque Center
Fri 06:37:23 PM 34.4911 -112.2411 170° South 391 450 18,400 -919 Descending Albuquerque Center
Fri 06:38:25 PM 34.3881 -112.2181 170° South 382 440 17,500 -919 Descending Albuquerque Center
Fri 06:39:27 PM 34.2897 -112.1914 167° South 370 426 16,500 -968 Descending Albuquerque Center
Fri 06:40:29 PM 34.1925 -112.1656 168° South 361 415 15,500 -1,016 Descending Albuquerque Center
Fri 06:41:31 PM 34.0800 -112.1353 167° South 350 403 14,400 -1,113 Descending Albuquerque Center
Fri 06:42:33 PM 33.9947 -112.1142 168° South 320 368 13,200 -1,366 Descending Albuquerque Center
Fri 06:43:34 PM 33.9122 -112.0919 167° South 309 356 11,600 -1,561 Descending Albuquerque Center
Fri 06:44:36 PM 33.8306 -112.0711 168° South 303 349 10,000 -823 Descending Albuquerque Center
Fri 06:45:38 PM 33.7308 -112.0469 169° South 307 353 9,900 -435 Descending Albuquerque Center
Fri 06:46:40 PM 33.6486 -112.0331 172° South 303 349 9,100 -435 Descending Albuquerque Center
Fri 06:47:42 PM 33.5725 -112.0133 168° South 279 321 9,000 -522 Descending Albuquerque Center
Fri 06:48:35 PM 33.5333 -111.9500 127° Southeast 260 299 8,100 -1,211 Descending Phoenix TRACON
Fri 06:49:36 PM 33.5167 -111.8667 103° East 243 280 6,700 -1,140 Descending Phoenix TRACON
Fri 06:50:36 PM 33.5000 -111.8000 107° East 214 246 5,800 -950 Descending Phoenix TRACON
Fri 06:51:36 PM 33.4500 -111.8167 196° South 180 207 4,800 -1,200 Descending Phoenix TRACON
Fri 06:52:36 PM 33.4333 -111.8667 248° West 172 198 3,400 -1,250 Descending Phoenix TRACON
Fri 06:53:36 PM 33.4333 -111.9167 270° West 155 178 2,300 -900 Descending Phoenix TRACON
Fri 06:54:36 PM 33.4333 -111.9667 270° West 125 144 1,600 -700 Descending Phoenix TRACON

Login

Don't have an account? Register now (free) for customized features, flight alerts, and more!